LPAZ/SMA METAR and TAF weather

Enter ICAO airport designator
Station Type Date Time Source
LPAZ METAR 2019/02/20 07:00 UTC NOAA

LPAZ 200700Z 20033G43KT 9999 FEW007 BKN011 17/15 Q1004


Station Type Date Time Source
LPAZ Decoded METAR 2019/02/20 07:00 UTC NOAA

Santa Maria Acores , Portugal (LPAZ) 36-58N 025-10W 100M
Feb 20, 2019 - 02:00 AM EST / 2019.02.20 0700 UTC
Wind: from the SSW (200 degrees) at 38 MPH (33 KT) gusting to 49 MPH (43 KT):0
Visibility: greater than 7 mile(s):0
Sky conditions: mostly cloudy
Temperature: 62 F (17 C)
Dew Point: 59 F (15 C)
Relative Humidity: 88%
Pressure (altimeter): 29.65 in. Hg (1004 hPa)
ob: LPAZ 200700Z 20033G43KT 9999 FEW007 BKN011 17/15 Q1004
cycle: 7

Station Type Date Time Source
LPAZ TAF 2019/02/20 06:18 UTC NOAA

TAF TAF LPAZ 200500Z 2006/2112 20030KT 6000 -RA SCT006 BKN010
TEMPO 2006/2016 20032G42KT 2000 RADZ BR SCT002 BKN004 PROB40
TEMPO 2010/2016 22035G52KT 1200 +RA BKN002 FEW018CB
BECMG 2016/2019 24013KT 9999 NSW SCT015 SCT030
TEMPO 2019/2112 5000 SHRA SCT008 BKN015 PROB30
TEMPO 2019/2112 2000 TSRA SCT018CB
BECMG 2105/2108 23025G38KT


Example: see airport list